Time;durP1;ratioP1;P1;durP2;ratioP2;P2;SDS_P1;SDS_P2;PMS_P1;PMS_P2;Temp;Humidity;BMP_temperature;BMP_pressure;BME280_temperature;BME280_humidity;BME280_pressure;Samples;Min_cycle;Max_cycle;Signal;HPM_P1;HPM_P2
2021/07/11 00:01:33;;;;;;;26.07;23.97;;;17.00;99.90;;;;;;6287921;22;20460;-86
2021/07/11 00:04:00;;;;;;;25.37;23.27;;;17.00;99.90;;;;;;6287915;22;20449;-86
2021/07/11 00:06:39;;;;;;;27.10;24.90;;;16.90;99.90;;;;;;6277783;22;20430;-86
2021/07/11 00:09:20;;;;;;;26.17;24.03;;;16.80;99.90;;;;;;6287244;22;20447;-85
2021/07/11 00:11:49;;;;;;;26.70;24.60;;;16.80;99.90;;;;;;6286663;22;20805;-86
2021/07/11 00:14:23;;;;;;;26.13;24.03;;;16.80;99.90;;;;;;6287384;22;20437;-85
2021/07/11 00:16:59;;;;;;;26.63;24.53;;;16.80;99.90;;;;;;6277743;22;20403;-86
2021/07/11 00:19:43;;;;;;;25.60;23.50;;;16.90;99.90;;;;;;6276991;22;20463;-85
2021/07/11 00:22:12;;;;;;;27.67;25.50;;;16.90;99.90;;;;;;6287897;22;20415;-85
2021/07/11 00:24:46;;;;;;;26.93;24.73;;;16.90;99.90;;;;;;6287851;22;20910;-86
2021/07/11 00:27:20;;;;;;;26.20;24.10;;;17.00;99.90;;;;;;6276445;22;20731;-85
2021/07/11 00:29:58;;;;;;;26.50;24.40;;;17.00;99.90;;;;;;6288000;22;20406;-86
2021/07/11 00:32:25;;;;;;;27.27;25.07;;;17.00;99.90;;;;;;6277869;22;20398;-86
2021/07/11 00:34:55;;;;;;;26.60;24.50;;;16.90;99.90;;;;;;6277592;22;20434;-85
2021/07/11 00:37:25;;;;;;;25.63;23.53;;;16.80;99.90;;;;;;6285904;22;20448;-85
2021/07/11 00:39:59;;;;;;;26.80;24.70;;;16.90;99.90;;;;;;6277520;22;20492;-85
2021/07/11 00:42:46;;;;;;;;;;;;;;;;;;;;;
2021/07/11 00:45:24;;;;;;;26.23;24.13;;;16.90;99.90;;;;;;6287551;22;20409;-86
2021/07/11 00:47:53;;;;;;;27.57;25.37;;;16.90;99.90;;;;;;6277509;22;20402;-85
2021/07/11 00:50:27;;;;;;;27.97;25.77;;;16.90;99.90;;;;;;6277454;22;20418;-85
2021/07/11 00:52:57;;;;;;;26.87;24.67;;;16.90;99.90;;;;;;6276833;22;20402;-85
2021/07/11 00:55:30;;;;;;;26.17;24.07;;;16.80;99.90;;;;;;6277370;22;20512;-84
2021/07/11 00:58:13;;;;;;;26.20;24.10;;;16.80;99.90;;;;;;6286565;22;20464;-85
2021/07/11 01:00:43;;;;;;;26.33;24.23;;;16.70;99.90;;;;;;6267999;22;20403;-85
2021/07/11 01:03:23;;;;;;;26.70;24.60;;;16.70;99.90;;;;;;6276844;22;20399;-85
2021/07/11 01:05:51;;;;;;;25.80;23.70;;;16.60;99.90;;;;;;6287718;22;20430;-85
2021/07/11 01:08:29;;;;;;;25.00;23.00;;;16.50;99.90;;;;;;6287689;22;20403;-85
2021/07/11 01:11:03;;;;;;;26.03;23.93;;;16.50;99.90;;;;;;6276931;22;20905;-85
2021/07/11 01:13:36;;;;;;;25.80;23.70;;;16.40;99.90;;;;;;6275675;22;20395;-85
2021/07/11 01:16:08;;;;;;;25.17;23.17;;;16.40;99.90;;;;;;6287283;22;20812;-84
2021/07/11 01:18:39;;;;;;;25.20;23.20;;;16.30;99.90;;;;;;6276879;22;20948;-84
2021/07/11 01:21:12;;;;;;;25.40;23.40;;;16.40;99.90;;;;;;6287136;22;20403;-85
2021/07/11 01:23:49;;;;;;;25.77;23.77;;;16.40;99.90;;;;;;6287469;22;20428;-86
2021/07/11 01:26:20;;;;;;;25.70;23.70;;;16.40;99.90;;;;;;6275738;22;20485;-85
2021/07/11 01:28:53;;;;;;;26.23;24.23;;;16.50;99.90;;;;;;6233315;22;20470;-86
2021/07/11 01:31:23;;;;;;;27.97;25.87;;;16.50;99.90;;;;;;6287232;22;20402;-84
2021/07/11 01:33:51;;;;;;;28.63;26.53;;;16.50;99.90;;;;;;6286805;22;20442;-86
2021/07/11 01:36:23;;;;;;;28.30;26.20;;;16.50;99.90;;;;;;6286862;22;20493;-85
2021/07/11 01:38:52;;;;;;;28.10;26.00;;;16.50;99.90;;;;;;6286790;22;20450;-87
2021/07/11 01:41:23;;;;;;;29.27;27.07;;;16.50;99.90;;;;;;6275660;22;20409;-86
2021/07/11 01:44:03;;;;;;;29.00;26.90;;;16.40;99.90;;;;;;6276817;22;20406;-86
2021/07/11 01:46:33;;;;;;;28.73;26.63;;;16.40;99.90;;;;;;6287272;22;20410;-85
2021/07/11 01:49:03;;;;;;;28.83;26.73;;;16.30;99.90;;;;;;6276302;22;20410;-85
2021/07/11 01:51:40;;;;;;;;;;;;;;;;;;;;;
2021/07/11 01:54:13;;;;;;;29.60;27.50;;;16.40;99.90;;;;;;6281359;22;20434;-85
2021/07/11 01:56:45;;;;;;;28.63;26.53;;;16.40;99.90;;;;;;6285697;22;20421;-86
2021/07/11 01:59:15;;;;;;;29.90;27.80;;;16.40;99.90;;;;;;6286955;22;20472;-85
2021/07/11 02:02:01;;;;;;;29.23;27.13;;;16.40;99.90;;;;;;6286914;22;20490;-85
2021/07/11 02:04:31;;;;;;;29.33;27.23;;;16.40;99.90;;;;;;6276337;22;20433;-85
2021/07/11 02:06:59;;;;;;;30.27;28.13;;;16.30;99.90;;;;;;6286780;22;20496;-85
2021/07/11 02:09:31;;;;;;;28.40;26.30;;;16.40;99.90;;;;;;6274500;22;20478;-86
2021/07/11 02:12:19;;;;;;;29.70;27.60;;;16.30;99.90;;;;;;6285423;22;20406;-86
2021/07/11 02:15:12;;;;;;;28.00;25.97;;;16.20;99.90;;;;;;6276670;22;20430;-86
2021/07/11 02:17:48;;;;;;;28.80;26.70;;;16.20;99.90;;;;;;6264981;22;20791;-86
2021/07/11 02:20:33;;;;;;;29.50;27.40;;;16.10;99.90;;;;;;6286790;22;20410;-86
2021/07/11 02:23:05;;;;;;;30.50;28.40;;;16.10;99.90;;;;;;6276617;22;20418;-86
2021/07/11 02:25:35;;;;;;;31.13;28.93;;;16.10;99.90;;;;;;6276653;22;20478;-86
2021/07/11 02:28:06;;;;;;;30.27;28.17;;;16.10;99.90;;;;;;6285222;22;20406;-86
2021/07/11 02:30:41;;;;;;;31.23;29.07;;;16.10;99.90;;;;;;6286489;22;20886;-85
2021/07/11 02:33:14;;;;;;;30.90;28.80;;;16.20;99.90;;;;;;6276636;22;20398;-86
2021/07/11 02:36:01;;;;;;;30.60;28.50;;;16.20;99.90;;;;;;6286359;22;20529;-87
2021/07/11 02:38:51;;;;;;;31.00;28.90;;;16.20;99.90;;;;;;6276306;22;20859;-87
2021/07/11 02:41:39;;;;;;;30.40;28.30;;;16.10;99.90;;;;;;6284965;22;20406;-87
2021/07/11 02:44:17;;;;;;;29.97;27.87;;;16.00;99.90;;;;;;6286330;22;20930;-87
2021/07/11 02:46:49;;;;;;;30.30;28.20;;;16.10;99.90;;;;;;6276498;22;20468;-86
2021/07/11 02:49:22;;;;;;;32.30;30.10;;;16.10;99.90;;;;;;6276349;22;20399;-85
2021/07/11 02:51:57;;;;;;;31.37;29.27;;;16.00;99.90;;;;;;6286265;22;20913;-87
2021/07/11 02:54:28;;;;;;;31.23;29.13;;;16.10;99.90;;;;;;6276348;22;20466;-86
2021/07/11 02:57:12;;;;;;;31.40;29.30;;;16.10;99.90;;;;;;6275325;22;20405;-86
2021/07/11 02:59:42;;;;;;;31.20;29.10;;;16.10;99.90;;;;;;6286465;22;20399;-87
2021/07/11 03:02:11;;;;;;;31.00;28.90;;;16.10;99.90;;;;;;6286753;22;20445;-87
2021/07/11 03:08:00;;;;;;;33.30;31.10;;;16.10;99.90;;;;;;6149781;23;20413;-86
2021/07/11 03:10:31;;;;;;;32.70;30.50;;;16.10;99.90;;;;;;6257659;22;20468;-85
2021/07/11 03:13:01;;;;;;;32.23;30.10;;;16.10;99.90;;;;;;6275106;22;20409;-86
2021/07/11 03:21:36;;;;;;;33.27;31.07;;;16.10;99.90;;;;;;6184110;23;20417;-86
2021/07/11 03:24:07;;;;;;;33.30;31.10;;;16.10;99.90;;;;;;6272773;22;20414;-87
2021/07/11 03:26:39;;;;;;;32.67;30.47;;;16.10;99.90;;;;;;6286973;22;20406;-87
2021/07/11 03:29:29;;;;;;;33.27;31.07;;;16.10;99.90;;;;;;6287858;22;20414;-85
2021/07/11 03:32:04;;;;;;;34.00;31.80;;;16.10;99.90;;;;;;6278248;22;20437;-87
2021/07/11 03:34:40;;;;;;;34.27;32.07;;;16.10;99.90;;;;;;6277206;22;20430;-87
2021/07/11 03:37:09;;;;;;;36.20;33.90;;;16.10;99.90;;;;;;6287875;22;20420;-83
2021/07/11 03:39:38;;;;;;;35.57;33.27;;;16.20;99.90;;;;;;6277759;22;20434;-81
2021/07/11 03:42:08;;;;;;;35.00;32.70;;;16.10;99.90;;;;;;6276654;22;20403;-80
2021/07/11 03:44:36;;;;;;;36.63;34.33;;;16.10;99.90;;;;;;6278228;22;20398;-82
2021/07/11 03:47:09;;;;;;;35.53;33.23;;;16.10;99.90;;;;;;6278162;22;20728;-83
2021/07/11 03:49:38;;;;;;;36.40;34.10;;;16.10;99.90;;;;;;6278189;22;20414;-80
2021/07/11 03:52:07;;;;;;;36.17;33.87;;;16.10;99.90;;;;;;6278072;22;20405;-82
2021/07/11 03:54:35;;;;;;;36.50;34.20;;;16.10;99.90;;;;;;6278115;22;20426;-82
2021/07/11 03:57:03;;;;;;;36.57;34.27;;;15.80;99.90;;;;;;6276289;22;20403;-82
2021/07/11 03:59:33;;;;;;;36.20;33.90;;;15.60;99.90;;;;;;6277631;22;20398;-80
2021/07/11 04:02:21;;;;;;;36.30;34.00;;;15.60;99.90;;;;;;6278035;22;20399;-88
2021/07/11 04:04:49;;;;;;;37.50;35.10;;;15.60;99.90;;;;;;6273456;22;20518;-82
2021/07/11 04:07:20;;;;;;;38.13;35.73;;;15.80;99.90;;;;;;6287535;22;20918;-81
2021/07/11 04:09:49;;;;;;;38.30;35.90;;;15.70;99.90;;;;;;6277785;22;20470;-82
2021/07/11 04:12:15;;;;;;;38.33;35.93;;;15.70;99.90;;;;;;6276411;22;20395;-82
2021/07/11 04:14:43;;;;;;;39.10;36.70;;;15.80;99.90;;;;;;6278102;22;20458;-81
2021/07/11 04:17:11;;;;;;;39.57;37.07;;;15.80;99.90;;;;;;6277858;22;20768;-82
2021/07/11 04:19:41;;;;;;;41.60;39.00;;;15.80;99.90;;;;;;6278005;22;20409;-81
2021/07/11 04:22:13;;;;;;;42.90;40.30;;;15.80;99.90;;;;;;6287627;22;20929;-81
2021/07/11 04:24:41;;;;;;;41.57;39.07;;;15.90;99.90;;;;;;6277558;22;20399;-81
2021/07/11 04:27:09;;;;;;;42.83;40.23;;;15.90;99.90;;;;;;6275972;22;20490;-81
2021/07/11 04:29:36;;;;;;;42.13;39.53;;;15.70;99.90;;;;;;6277826;22;20894;-82
2021/07/11 04:32:04;;;;;;;43.53;40.93;;;15.90;99.90;;;;;;6288004;22;20457;-82
2021/07/11 04:34:34;;;;;;;43.60;41.00;;;15.80;99.90;;;;;;6277412;22;20391;-82
2021/07/11 04:37:04;;;;;;;46.27;43.57;;;15.80;99.90;;;;;;6277814;22;20394;-83
2021/07/11 04:39:38;;;;;;;45.13;42.43;;;15.80;99.90;;;;;;6288142;22;20439;-88
2021/07/11 04:42:08;;;;;;;46.17;43.40;;;15.80;99.90;;;;;;6286293;22;20431;-87
2021/07/11 04:44:38;;;;;;;45.73;43.03;;;15.80;99.90;;;;;;6287669;22;20441;-86
2021/07/11 04:47:05;;;;;;;45.97;43.27;;;15.90;99.90;;;;;;6287677;22;20399;-81
2021/07/11 04:49:32;;;;;;;47.87;45.07;;;16.00;99.90;;;;;;6277716;22;20395;-83
2021/07/11 04:51:59;;;;;;;48.17;45.33;;;16.00;99.90;;;;;;6277458;22;20776;-84
2021/07/11 04:54:27;;;;;;;49.93;47.03;;;15.90;99.90;;;;;;6277488;22;20403;-83
2021/07/11 04:56:54;;;;;;;51.00;48.00;;;16.00;99.90;;;;;;6275527;22;20398;-83
2021/07/11 04:59:22;;;;;;;52.50;49.40;;;16.10;99.90;;;;;;6277389;22;20402;-84
2021/07/11 05:01:49;;;;;;;54.00;50.90;;;16.10;99.90;;;;;;6287275;22;20406;-83
2021/07/11 05:04:16;;;;;;;55.60;52.40;;;16.20;99.90;;;;;;6277456;22;20965;-83
2021/07/11 05:06:44;;;;;;;57.10;53.90;;;16.20;99.90;;;;;;6277524;22;20433;-83
2021/07/11 05:09:11;;;;;;;59.30;56.00;;;16.30;99.90;;;;;;6276917;22;20399;-83
2021/07/11 05:11:40;;;;;;;62.87;59.47;;;16.20;99.90;;;;;;6286250;22;20437;-83
2021/07/11 05:14:07;;;;;;;62.33;58.93;;;16.30;99.90;;;;;;6277468;22;20446;-83
2021/07/11 05:16:46;;;;;;;63.83;60.33;;;16.30;99.90;;;;;;6277356;22;20513;-86
2021/07/11 05:19:55;;;;;;;66.73;63.13;;;16.30;99.90;;;;;;6277419;22;20430;-85
2021/07/11 05:22:22;;;;;;;72.70;68.90;;;16.20;99.90;;;;;;6287646;22;20403;-87
2021/07/11 05:28:25;;;;;;;69.97;66.27;;;16.50;99.90;;;;;;6263664;22;20480;-87
2021/07/11 05:31:00;;;;;;;71.43;67.63;;;16.50;99.90;;;;;;6277207;22;20789;-85
2021/07/11 05:33:33;;;;;;;71.83;68.03;;;16.60;99.90;;;;;;6276739;22;20394;-84
2021/07/11 05:36:28;;;;;;;;;;;;;;;;;;;;;
2021/07/11 05:39:21;;;;;;;75.63;71.63;;;16.60;99.90;;;;;;6213308;22;20825;-84
2021/07/11 05:42:20;;;;;;;74.43;70.43;;;16.80;99.90;;;;;;6264111;22;20406;-86
2021/07/11 05:44:48;;;;;;;76.20;72.10;;;16.70;99.90;;;;;;6162909;23;20484;-80
2021/07/11 05:47:19;;;;;;;80.20;76.03;;;16.70;99.90;;;;;;6242810;22;20414;-87
2021/07/11 05:49:56;;;;;;;79.27;75.10;;;16.60;99.90;;;;;;6276811;22;20414;-86
2021/07/11 05:52:30;;;;;;;80.73;76.53;;;16.60;99.90;;;;;;6276948;22;20398;-86
2021/07/11 05:55:04;;;;;;;78.47;74.27;;;16.60;99.90;;;;;;6287315;22;20403;-85
2021/07/11 05:57:40;;;;;;;76.63;72.63;;;16.60;99.90;;;;;;6275489;22;20430;-85
2021/07/11 06:00:14;;;;;;;74.80;70.80;;;16.50;99.90;;;;;;6276598;22;20477;-85
2021/07/11 06:02:52;;;;;;;73.77;69.80;;;16.50;99.90;;;;;;6276895;22;20434;-86
2021/07/11 06:08:19;;;;;;;76.60;72.60;;;16.70;99.90;;;;;;6273703;22;20418;-89
2021/07/11 06:11:12;;;;;;;75.03;71.03;;;16.80;99.90;;;;;;6275623;22;20403;-86
2021/07/11 06:13:48;;;;;;;74.23;70.23;;;16.90;99.90;;;;;;6275179;22;20473;-85
2021/07/11 06:16:26;;;;;;;70.63;66.73;;;17.00;99.90;;;;;;6286279;22;20434;-85
2021/07/11 06:19:28;;;;;;;79.00;74.83;;;16.90;99.90;;;;;;6285899;22;20403;-87
2021/07/11 06:22:18;;;;;;;;;;;;;;;;;;;;;
2021/07/11 06:25:17;;;;;;;74.93;70.93;;;17.00;99.90;;;;;;6278354;22;20398;-86
2021/07/11 06:28:15;;;;;;;76.93;72.83;;;17.00;99.90;;;;;;6266142;22;20419;-85
2021/07/11 06:31:49;;;;;;;76.20;72.10;;;17.20;99.90;;;;;;6273628;22;20410;-84
2021/07/11 06:34:23;;;;;;;79.80;75.60;;;17.30;99.90;;;;;;6189495;23;20817;-83
2021/07/11 06:36:53;;;;;;;70.80;66.93;;;17.40;99.90;;;;;;6284638;22;20441;-85
2021/07/11 06:43:11;;;;;;;62.97;59.37;;;17.30;99.90;;;;;;6132791;22;20734;-85
2021/07/11 06:45:49;;;;;;;;;;;;;;;;;;;;;
2021/07/11 06:49:14;;;;;;;65.83;62.13;;;17.30;99.90;;;;;;6233775;22;20456;-86
2021/07/11 06:58:02;;;;;;;55.10;51.80;;;17.00;99.90;;;;;;6076192;22;20410;-80
2021/07/11 07:00:29;;;;;;;55.73;52.33;;;16.90;99.90;;;;;;6278330;22;20399;-81
2021/07/11 07:10:23;;;;;;;;;;;;;;;;;;;;;
2021/07/11 07:13:24;;;;;;;;;;;;;;;;;;;;;
2021/07/11 07:19:05;;;;;;;49.17;46.07;;;17.10;99.90;;;;;;6282554;22;20410;-86
2021/07/11 07:21:32;;;;;;;58.47;55.00;;;17.10;99.90;;;;;;6283058;22;20410;-79
2021/07/11 07:23:59;;;;;;;51.43;48.33;;;17.10;99.90;;;;;;6278572;22;20402;-88
2021/07/11 07:26:26;;;;;;;51.10;47.93;;;17.00;99.90;;;;;;6287236;22;20414;-87
2021/07/11 07:28:54;;;;;;;45.40;42.50;;;16.90;99.90;;;;;;6288751;22;20490;-79
2021/07/11 07:31:21;;;;;;;45.40;42.50;;;16.90;99.90;;;;;;6277789;22;20441;-82
2021/07/11 07:33:48;;;;;;;47.90;44.90;;;16.90;99.90;;;;;;6278262;22;20395;-81
2021/07/11 07:36:14;;;;;;;46.07;43.17;;;16.90;99.90;;;;;;6277830;22;20434;-80
2021/07/11 07:38:41;;;;;;;45.50;42.60;;;16.80;99.90;;;;;;6278192;22;20498;-81
2021/07/11 07:41:08;;;;;;;44.70;41.90;;;16.80;99.90;;;;;;6277679;22;20442;-86
2021/07/11 07:43:35;;;;;;;43.23;40.43;;;16.80;99.90;;;;;;6288007;22;20413;-84
2021/07/11 07:46:03;;;;;;;43.83;40.97;;;16.80;99.90;;;;;;6278367;22;20953;-83
2021/07/11 07:48:36;;;;;;;43.27;40.47;;;16.80;99.90;;;;;;6289361;22;20485;-85
2021/07/11 07:51:03;;;;;;;37.10;34.50;;;16.80;99.90;;;;;;6288504;22;20403;-84
2021/07/11 07:53:30;;;;;;;42.90;40.10;;;16.90;99.90;;;;;;6289048;22;20414;-82
2021/07/11 07:55:57;;;;;;;33.40;30.90;;;17.30;99.90;;;;;;6288597;22;20500;-86
2021/07/11 07:58:24;;;;;;;36.47;33.83;;;17.40;99.90;;;;;;6287661;22;20427;-83
2021/07/11 08:00:54;;;;;;;38.67;35.97;;;17.50;99.90;;;;;;6288988;22;20438;-89
2021/07/11 08:03:22;;;;;;;30.80;28.30;;;17.70;99.90;;;;;;6277847;22;20434;-88
2021/07/11 08:05:55;;;;;;;28.40;25.90;;;18.00;99.90;;;;;;6278010;22;20403;-84
2021/07/11 08:08:23;;;;;;;27.30;24.80;;;18.00;99.90;;;;;;6277987;22;20474;-80
2021/07/11 08:10:50;;;;;;;30.07;27.50;;;18.10;99.90;;;;;;6287621;22;20429;-79
2021/07/11 08:35:33;;;;;;;22.00;9.67;;;19.50;99.90;;;;;;5758301;24;20420;-81
2021/07/11 08:52:51;;;;;;;25.13;4.03;;;20.20;73.40;;;;;;6238175;22;20458;-77
2021/07/11 08:58:06;;;;;;;25.90;3.27;;;20.80;66.00;;;;;;6241573;22;20452;-80
2021/07/11 09:00:34;;;;;;;26.10;3.33;;;20.60;68.00;;;;;;6287779;22;20403;-78
2021/07/11 09:03:19;;;;;;;26.23;2.60;;;20.40;72.90;;;;;;6254638;22;20438;-88
2021/07/11 09:06:31;;;;;;;25.67;2.30;;;20.70;71.00;;;;;;6246914;23;20482;-88
2021/07/11 12:48:29;;;;;;;;;;;;;;;;;;;;;
2021/07/11 12:57:19;;;;;;;27.37;1.10;;;24.10;18.10;;;;;;5950876;24;20868;-91
2021/07/11 13:00:38;;;;;;;;;;;;;;;;;;;;;
2021/07/11 13:16:26;;;;;;;;;;;;;;;;;;;;;
2021/07/11 14:39:01;;;;;;;46.80;4.97;;;33.50;1.00;;;;;;5826898;24;20174;-78
2021/07/11 14:41:27;;;;;;;50.30;10.10;;;33.30;1.00;;;;;;5932805;23;20424;-78
2021/07/11 14:43:54;;;;;;;49.30;5.30;;;33.50;1.00;;;;;;6065148;23;20391;-78
2021/07/11 14:46:21;;;;;;;48.00;5.17;;;33.70;1.00;;;;;;6065149;23;20409;-83
2021/07/11 14:48:48;;;;;;;47.57;5.20;;;32.70;1.00;;;;;;6104144;23;20408;-80
2021/07/11 14:51:16;;;;;;;48.63;5.80;;;32.00;1.00;;;;;;6152797;23;20849;-83
2021/07/11 14:53:43;;;;;;;48.20;6.00;;;32.10;1.00;;;;;;6152952;23;20409;-79
2021/07/11 14:56:11;;;;;;;47.67;5.60;;;32.40;1.00;;;;;;6152708;23;20480;-80
2021/07/11 14:58:38;;;;;;;48.40;5.30;;;32.40;1.00;;;;;;6151727;23;20514;-79
2021/07/11 15:01:05;;;;;;;49.20;7.47;;;31.10;1.00;;;;;;6162613;23;20441;-80
2021/07/11 15:03:32;;;;;;;47.37;5.63;;;30.60;1.00;;;;;;6153077;23;20731;-78
2021/07/11 15:06:01;;;;;;;48.47;5.40;;;30.60;1.00;;;;;;6152768;23;20408;-81
2021/07/11 15:08:28;;;;;;;49.27;7.00;;;29.80;1.00;;;;;;6152704;23;20402;-79
2021/07/11 15:10:55;;;;;;;49.10;5.10;;;28.60;1.00;;;;;;6152746;23;20402;-79
2021/07/11 15:13:24;;;;;;;48.30;5.00;;;27.80;1.00;;;;;;6153286;23;20410;-79
2021/07/11 15:15:51;;;;;;;49.43;4.30;;;26.80;1.00;;;;;;6154567;23;20444;-78
2021/07/11 15:18:18;;;;;;;46.43;4.10;;;26.30;1.00;;;;;;6248702;23;20525;-79
2021/07/11 15:20:47;;;;;;;44.17;3.60;;;26.10;1.00;;;;;;6247713;23;20422;-78
2021/07/11 15:23:14;;;;;;;42.90;3.40;;;26.10;1.00;;;;;;6257481;23;20410;-79
2021/07/11 15:25:41;;;;;;;40.40;4.20;;;26.90;1.00;;;;;;6256480;23;20437;-78
2021/07/11 15:28:08;;;;;;;41.37;3.47;;;27.70;1.00;;;;;;6246162;23;20441;-78
2021/07/11 15:30:37;;;;;;;41.23;3.23;;;26.90;1.00;;;;;;6257586;23;20493;-77
2021/07/11 15:33:04;;;;;;;40.73;3.30;;;25.90;1.00;;;;;;6247613;23;20406;-77
2021/07/11 15:35:31;;;;;;;40.37;3.37;;;25.20;1.00;;;;;;6257415;23;20433;-78
2021/07/11 15:37:58;;;;;;;40.10;3.20;;;24.90;1.00;;;;;;6257386;23;20427;-77
2021/07/11 15:40:24;;;;;;;37.70;3.30;;;24.90;1.00;;;;;;6247666;23;20454;-77
2021/07/11 15:42:51;;;;;;;36.37;3.20;;;25.00;1.00;;;;;;6245745;23;20955;-79
2021/07/11 15:45:19;;;;;;;35.07;3.17;;;25.10;1.00;;;;;;6247084;23;20870;-79
2021/07/11 15:51:09;;;;;;;34.93;3.67;;;25.70;1.00;;;;;;6275028;22;20419;-85
2021/07/11 15:53:36;;;;;;;34.50;3.40;;;25.50;1.00;;;;;;6290221;22;20412;-82
2021/07/11 15:56:04;;;;;;;34.73;3.20;;;25.50;1.00;;;;;;6281698;22;20398;-84
2021/07/11 15:58:30;;;;;;;35.60;3.33;;;25.60;1.00;;;;;;6279021;22;20751;-85
2021/07/11 16:00:57;;;;;;;34.53;3.53;;;25.60;1.00;;;;;;6279289;22;20428;-79
2021/07/11 16:03:24;;;;;;;36.00;3.70;;;25.50;1.00;;;;;;6279712;22;20402;-80
2021/07/11 16:05:51;;;;;;;39.50;7.27;;;25.50;1.00;;;;;;6280183;22;20390;-79
2021/07/11 16:08:19;;;;;;;38.47;5.70;;;25.50;1.00;;;;;;6280504;22;20394;-81
2021/07/11 16:10:46;;;;;;;33.97;3.70;;;25.40;1.00;;;;;;6279743;22;20425;-78
2021/07/11 16:13:13;;;;;;;36.80;3.53;;;25.40;1.00;;;;;;6278133;22;20742;-81
2021/07/11 16:15:39;;;;;;;37.40;3.40;;;25.40;1.00;;;;;;6278878;22;20394;-77
2021/07/11 16:18:06;;;;;;;33.80;3.20;;;25.60;1.00;;;;;;6272186;22;20423;-81
2021/07/11 16:20:33;;;;;;;32.50;2.40;;;25.40;1.00;;;;;;6275717;22;20429;-84
2021/07/11 16:23:00;;;;;;;33.90;3.23;;;25.30;1.00;;;;;;6277396;22;20493;-84
2021/07/11 16:25:28;;;;;;;33.43;3.23;;;25.30;1.00;;;;;;6280440;22;20438;-83
2021/07/11 16:27:56;;;;;;;36.63;4.37;;;25.20;1.00;;;;;;6280842;22;20404;-77
2021/07/11 16:30:25;;;;;;;33.90;3.13;;;24.90;1.90;;;;;;6278453;22;20426;-78
2021/07/11 16:32:52;;;;;;;34.47;3.20;;;24.70;4.90;;;;;;6288639;22;20890;-82
2021/07/11 16:35:20;;;;;;;33.20;3.20;;;24.40;1.10;;;;;;6289757;22;20398;-82
2021/07/11 16:37:48;;;;;;;33.50;3.30;;;24.20;1.50;;;;;;6276887;22;20755;-84
2021/07/11 16:40:18;;;;;;;32.40;2.67;;;24.00;1.50;;;;;;6276729;22;20409;-79
2021/07/11 16:42:46;;;;;;;32.23;2.90;;;23.80;2.80;;;;;;6275684;22;20403;-81
2021/07/11 16:45:17;;;;;;;31.10;2.50;;;23.70;2.70;;;;;;6288525;22;20411;-81
2021/07/11 16:47:44;;;;;;;30.93;2.90;;;23.70;2.50;;;;;;6276664;22;20473;-85
2021/07/11 16:50:13;;;;;;;34.90;2.60;;;23.60;3.10;;;;;;6276000;22;20407;-84
2021/07/11 16:52:40;;;;;;;30.50;2.53;;;23.60;4.20;;;;;;6275913;22;20402;-87
2021/07/11 16:55:09;;;;;;;31.00;2.97;;;23.50;2.30;;;;;;6276410;22;20445;-86
2021/07/11 16:57:36;;;;;;;30.83;2.80;;;23.60;3.80;;;;;;6274529;22;20941;-87
2021/07/11 17:00:07;;;;;;;31.20;2.97;;;23.60;3.60;;;;;;6277628;22;20509;-79
2021/07/11 17:02:34;;;;;;;32.13;2.77;;;23.70;4.60;;;;;;6279648;22;20394;-82
2021/07/11 17:05:01;;;;;;;29.90;3.07;;;23.60;6.00;;;;;;6276291;22;20437;-80
2021/07/11 17:07:27;;;;;;;31.30;3.20;;;23.60;8.20;;;;;;6286398;22;20406;-86
2021/07/11 17:09:54;;;;;;;30.20;3.40;;;23.60;5.10;;;;;;6276160;22;20409;-79
2021/07/11 17:12:22;;;;;;;30.50;3.57;;;23.90;7.30;;;;;;6276209;22;20735;-83
2021/07/11 17:14:49;;;;;;;30.47;3.50;;;23.90;9.20;;;;;;6281351;22;20485;-80
2021/07/11 17:17:17;;;;;;;29.53;3.13;;;23.70;8.00;;;;;;6280964;22;20481;-80
2021/07/11 17:19:44;;;;;;;31.07;3.30;;;23.50;8.70;;;;;;6278532;22;20446;-81
2021/07/11 17:22:11;;;;;;;30.37;3.30;;;23.40;9.10;;;;;;6280530;22;20399;-75
2021/07/11 17:24:38;;;;;;;29.70;2.80;;;23.30;8.30;;;;;;6278187;22;20426;-83
2021/07/11 17:27:05;;;;;;;29.60;2.77;;;23.20;7.80;;;;;;6277194;22;20413;-80
2021/07/11 17:29:32;;;;;;;29.07;2.93;;;23.10;6.80;;;;;;6288125;22;20414;-81
2021/07/11 17:31:59;;;;;;;29.70;3.03;;;23.00;8.50;;;;;;6277865;22;20804;-79
2021/07/11 17:34:27;;;;;;;28.90;2.93;;;22.90;8.20;;;;;;6289098;22;20420;-82
2021/07/11 17:36:55;;;;;;;31.37;3.20;;;22.80;8.40;;;;;;6287551;22;20411;-85
2021/07/11 17:39:22;;;;;;;29.90;3.33;;;22.70;7.00;;;;;;6279258;22;20438;-81
2021/07/11 17:41:48;;;;;;;28.30;2.80;;;22.60;9.30;;;;;;6278363;22;21002;-81
2021/07/11 17:44:15;;;;;;;28.00;2.57;;;22.50;10.00;;;;;;6275578;22;20863;-82
2021/07/11 17:46:42;;;;;;;28.17;2.70;;;22.40;10.00;;;;;;6285176;22;20443;-79
2021/07/11 17:49:09;;;;;;;28.30;2.97;;;22.40;11.50;;;;;;6275252;22;20623;-79
2021/07/11 17:51:37;;;;;;;28.23;3.23;;;22.40;12.20;;;;;;6275205;22;20402;-81
2021/07/11 17:54:04;;;;;;;27.90;2.70;;;22.30;13.00;;;;;;6275297;22;20402;-78
2021/07/11 17:56:30;;;;;;;27.30;2.50;;;22.20;13.80;;;;;;6273905;22;20406;-76
2021/07/11 17:58:57;;;;;;;27.77;3.30;;;22.10;14.90;;;;;;6275246;22;20469;-78
2021/07/11 18:01:24;;;;;;;27.77;3.00;;;22.10;15.00;;;;;;6275369;22;20401;-76
2021/07/11 18:03:51;;;;;;;28.80;3.70;;;22.10;15.90;;;;;;6275657;22;20402;-80
2021/07/11 18:06:18;;;;;;;28.30;4.30;;;22.10;16.10;;;;;;6275531;22;20404;-77
2021/07/11 18:08:47;;;;;;;32.67;4.50;;;22.10;21.20;;;;;;6275370;22;20481;-81
2021/07/11 18:11:13;;;;;;;31.50;5.17;;;21.90;22.50;;;;;;6275511;22;20401;-76
2021/07/11 18:13:40;;;;;;;29.57;3.70;;;21.80;26.00;;;;;;6275079;22;20394;-76
2021/07/11 18:16:08;;;;;;;31.33;3.97;;;21.60;24.00;;;;;;6286812;22;20409;-78
2021/07/11 18:18:35;;;;;;;52.63;12.93;;;21.50;26.20;;;;;;6276969;22;20434;-76
2021/07/11 18:21:03;;;;;;;38.77;8.47;;;21.30;30.50;;;;;;6276788;22;20399;-76
2021/07/11 18:27:42;;;;;;;42.83;9.73;;;20.90;38.30;;;;;;6103691;23;20456;-91
2021/07/11 18:30:32;;;;;;;30.13;4.70;;;20.80;40.80;;;;;;6154039;23;20455;-91
2021/07/11 18:36:19;;;;;;;27.93;3.70;;;20.60;40.50;;;;;;6192992;23;20420;-89
2021/07/11 18:39:05;;;;;;;;;;;;;;;;;;;;;
2021/07/11 18:42:25;;;;;;;30.90;4.77;;;20.40;38.80;;;;;;6230055;22;20405;-91
2021/07/11 18:49:04;;;;;;;27.27;5.33;;;20.20;40.20;;;;;;6226463;22;20449;-90
2021/07/11 18:51:45;;;;;;;35.27;7.93;;;20.20;44.50;;;;;;6179590;22;20453;-83
2021/07/11 19:45:59;;;;;;;29.87;7.00;;;18.80;72.40;;;;;;6052603;23;20946;-86
2021/07/11 19:52:39;;;;;;;;;;;;;;;;;;;;;
2021/07/11 19:59:30;;;;;;;;;;;;;;;;;;;;;
2021/07/11 20:54:00;;;;;;;;;;;;;;;;;;;;;
2021/07/11 23:07:11;;;;;;;;;;;;;;;;;;;;;
